sensor_id;sensor_type;location;lat;lon;timestamp;temperature;humidity
15143;DHT22;7672;50.834;6.286;2024-03-07T00:01:07;9.10;99.90
15143;DHT22;7672;50.834;6.286;2024-03-07T00:03:35;9.00;99.90
15143;DHT22;7672;50.834;6.286;2024-03-07T00:06:02;8.90;99.90
15143;DHT22;7672;50.834;6.286;2024-03-07T00:08:30;9.00;99.90
15143;DHT22;7672;50.834;6.286;2024-03-07T00:10:57;9.00;99.90
15143;DHT22;7672;50.834;6.286;2024-03-07T00:13:24;9.00;99.90
15143;DHT22;7672;50.834;6.286;2024-03-07T00:15:51;9.40;99.90
15143;DHT22;7672;50.834;6.286;2024-03-07T00:18:19;8.90;99.90
15143;DHT22;7672;50.834;6.286;2024-03-07T00:20:46;9.10;99.90
15143;DHT22;7672;50.834;6.286;2024-03-07T00:23:13;8.90;99.90
15143;DHT22;7672;50.834;6.286;2024-03-07T00:25:43;8.80;99.90
15143;DHT22;7672;50.834;6.286;2024-03-07T00:28:10;8.80;99.90
15143;DHT22;7672;50.834;6.286;2024-03-07T00:30:56;8.80;99.90
15143;DHT22;7672;50.834;6.286;2024-03-07T00:34:22;8.70;99.90
15143;DHT22;7672;50.834;6.286;2024-03-07T00:37:03;8.70;99.90
15143;DHT22;7672;50.834;6.286;2024-03-07T00:39:42;8.70;99.90
15143;DHT22;7672;50.834;6.286;2024-03-07T00:42:10;8.60;99.90
15143;DHT22;7672;50.834;6.286;2024-03-07T00:44:37;8.60;99.90
15143;DHT22;7672;50.834;6.286;2024-03-07T00:47:04;8.50;99.90
15143;DHT22;7672;50.834;6.286;2024-03-07T00:49:31;8.50;99.90
15143;DHT22;7672;50.834;6.286;2024-03-07T00:51:59;8.40;99.90
15143;DHT22;7672;50.834;6.286;2024-03-07T00:54:27;8.40;99.90
15143;DHT22;7672;50.834;6.286;2024-03-07T00:56:54;8.40;99.90
15143;DHT22;7672;50.834;6.286;2024-03-07T00:59:28;8.30;99.90
15143;DHT22;7672;50.834;6.286;2024-03-07T01:02:08;8.50;99.90
15143;DHT22;7672;50.834;6.286;2024-03-07T01:04:49;8.30;99.90
15143;DHT22;7672;50.834;6.286;2024-03-07T01:08:06;8.40;99.90
15143;DHT22;7672;50.834;6.286;2024-03-07T01:10:38;8.30;99.90
15143;DHT22;7672;50.834;6.286;2024-03-07T01:13:06;8.30;99.90
15143;DHT22;7672;50.834;6.286;2024-03-07T01:15:34;8.20;99.90
15143;DHT22;7672;50.834;6.286;2024-03-07T01:18:01;8.20;99.90
15143;DHT22;7672;50.834;6.286;2024-03-07T01:20:29;8.20;99.90
15143;DHT22;7672;50.834;6.286;2024-03-07T01:22:56;8.20;99.90
15143;DHT22;7672;50.834;6.286;2024-03-07T01:25:25;8.20;99.90
15143;DHT22;7672;50.834;6.286;2024-03-07T01:28:15;8.10;99.90
15143;DHT22;7672;50.834;6.286;2024-03-07T01:30:44;8.10;99.90
15143;DHT22;7672;50.834;6.286;2024-03-07T01:33:11;8.10;99.90
15143;DHT22;7672;50.834;6.286;2024-03-07T01:35:38;8.10;99.90
15143;DHT22;7672;50.834;6.286;2024-03-07T01:38:05;8.00;99.90
15143;DHT22;7672;50.834;6.286;2024-03-07T01:40:35;8.00;99.90
15143;DHT22;7672;50.834;6.286;2024-03-07T01:43:03;8.00;99.90
15143;DHT22;7672;50.834;6.286;2024-03-07T01:45:38;8.00;99.90
15143;DHT22;7672;50.834;6.286;2024-03-07T01:48:35;7.90;99.90
15143;DHT22;7672;50.834;6.286;2024-03-07T01:55:15;7.80;99.90
15143;DHT22;7672;50.834;6.286;2024-03-07T01:57:43;7.80;99.90
15143;DHT22;7672;50.834;6.286;2024-03-07T02:00:35;7.70;99.90
15143;DHT22;7672;50.834;6.286;2024-03-07T02:03:28;7.70;99.90
15143;DHT22;7672;50.834;6.286;2024-03-07T02:05:56;8.10;99.90
15143;DHT22;7672;50.834;6.286;2024-03-07T02:08:23;7.70;99.90
15143;DHT22;7672;50.834;6.286;2024-03-07T02:10:50;7.60;99.90
15143;DHT22;7672;50.834;6.286;2024-03-07T02:13:17;7.60;99.90
15143;DHT22;7672;50.834;6.286;2024-03-07T02:15:45;7.60;99.90
15143;DHT22;7672;50.834;6.286;2024-03-07T02:18:12;7.50;99.90
15143;DHT22;7672;50.834;6.286;2024-03-07T02:20:46;7.50;99.90
15143;DHT22;7672;50.834;6.286;2024-03-07T02:23:14;7.50;99.90
15143;DHT22;7672;50.834;6.286;2024-03-07T02:25:41;7.40;99.90
15143;DHT22;7672;50.834;6.286;2024-03-07T02:28:09;7.40;99.90
15143;DHT22;7672;50.834;6.286;2024-03-07T02:30:36;7.60;99.90
15143;DHT22;7672;50.834;6.286;2024-03-07T02:33:05;7.40;99.90
15143;DHT22;7672;50.834;6.286;2024-03-07T02:35:45;7.40;99.90
15143;DHT22;7672;50.834;6.286;2024-03-07T02:38:22;7.40;99.90
15143;DHT22;7672;50.834;6.286;2024-03-07T02:41:00;7.60;99.90
15143;DHT22;7672;50.834;6.286;2024-03-07T02:43:33;7.40;99.90
15143;DHT22;7672;50.834;6.286;2024-03-07T02:46:37;7.80;99.90
15143;DHT22;7672;50.834;6.286;2024-03-07T02:49:14;7.40;99.90
15143;DHT22;7672;50.834;6.286;2024-03-07T02:51:44;7.40;99.90
15143;DHT22;7672;50.834;6.286;2024-03-07T02:54:27;7.40;99.90
15143;DHT22;7672;50.834;6.286;2024-03-07T02:56:57;7.40;99.90
15143;DHT22;7672;50.834;6.286;2024-03-07T02:59:36;7.40;99.90
15143;DHT22;7672;50.834;6.286;2024-03-07T03:02:06;7.40;99.90
15143;DHT22;7672;50.834;6.286;2024-03-07T03:04:48;7.50;99.90
15143;DHT22;7672;50.834;6.286;2024-03-07T03:07:30;7.40;99.90
15143;DHT22;7672;50.834;6.286;2024-03-07T03:10:33;7.40;99.90
15143;DHT22;7672;50.834;6.286;2024-03-07T03:15:08;7.40;99.90
15143;DHT22;7672;50.834;6.286;2024-03-07T03:17:53;7.40;99.90
15143;DHT22;7672;50.834;6.286;2024-03-07T03:20:32;7.40;99.90
15143;DHT22;7672;50.834;6.286;2024-03-07T03:23:07;7.30;99.90
15143;DHT22;7672;50.834;6.286;2024-03-07T03:25:59;7.70;99.90
15143;DHT22;7672;50.834;6.286;2024-03-07T03:28:30;7.30;99.90
15143;DHT22;7672;50.834;6.286;2024-03-07T03:31:00;7.20;99.90
15143;DHT22;7672;50.834;6.286;2024-03-07T03:33:34;7.20;99.90
15143;DHT22;7672;50.834;6.286;2024-03-07T03:36:02;7.20;99.90
15143;DHT22;7672;50.834;6.286;2024-03-07T03:38:30;7.20;99.90
15143;DHT22;7672;50.834;6.286;2024-03-07T03:40:59;7.40;99.90
15143;DHT22;7672;50.834;6.286;2024-03-07T03:43:32;7.20;99.90
15143;DHT22;7672;50.834;6.286;2024-03-07T03:46:00;7.20;99.90
15143;DHT22;7672;50.834;6.286;2024-03-07T03:48:29;7.10;99.90
15143;DHT22;7672;50.834;6.286;2024-03-07T03:50:56;7.10;99.90
15143;DHT22;7672;50.834;6.286;2024-03-07T03:53:23;7.10;99.90
15143;DHT22;7672;50.834;6.286;2024-03-07T03:55:50;7.00;99.90
15143;DHT22;7672;50.834;6.286;2024-03-07T03:58:17;7.10;99.90
15143;DHT22;7672;50.834;6.286;2024-03-07T04:00:44;7.10;99.90
15143;DHT22;7672;50.834;6.286;2024-03-07T04:03:11;7.10;99.90
15143;DHT22;7672;50.834;6.286;2024-03-07T04:05:39;7.10;99.90
15143;DHT22;7672;50.834;6.286;2024-03-07T04:08:09;7.30;99.90
15143;DHT22;7672;50.834;6.286;2024-03-07T04:11:00;7.10;99.90
15143;DHT22;7672;50.834;6.286;2024-03-07T04:13:28;7.30;99.90
15143;DHT22;7672;50.834;6.286;2024-03-07T04:15:56;7.10;99.90
15143;DHT22;7672;50.834;6.286;2024-03-07T04:18:23;6.90;99.90
15143;DHT22;7672;50.834;6.286;2024-03-07T04:20:50;7.10;99.90
15143;DHT22;7672;50.834;6.286;2024-03-07T04:23:18;7.00;99.90
15143;DHT22;7672;50.834;6.286;2024-03-07T04:25:48;7.20;99.90
15143;DHT22;7672;50.834;6.286;2024-03-07T04:28:16;7.00;99.90
15143;DHT22;7672;50.834;6.286;2024-03-07T04:30:55;7.00;99.90
15143;DHT22;7672;50.834;6.286;2024-03-07T04:33:33;7.00;99.90
15143;DHT22;7672;50.834;6.286;2024-03-07T04:36:17;7.10;99.90
15143;DHT22;7672;50.834;6.286;2024-03-07T04:38:44;7.00;99.90
15143;DHT22;7672;50.834;6.286;2024-03-07T04:41:12;7.00;99.90
15143;DHT22;7672;50.834;6.286;2024-03-07T04:43:42;7.00;99.90
15143;DHT22;7672;50.834;6.286;2024-03-07T04:46:09;7.00;99.90
15143;DHT22;7672;50.834;6.286;2024-03-07T04:48:36;7.00;99.90
15143;DHT22;7672;50.834;6.286;2024-03-07T04:51:04;7.00;99.90
15143;DHT22;7672;50.834;6.286;2024-03-07T04:53:31;7.00;99.90
15143;DHT22;7672;50.834;6.286;2024-03-07T04:56:05;6.90;99.90
15143;DHT22;7672;50.834;6.286;2024-03-07T04:58:43;6.70;99.90
15143;DHT22;7672;50.834;6.286;2024-03-07T05:01:47;6.90;99.90
15143;DHT22;7672;50.834;6.286;2024-03-07T05:04:17;6.90;99.90
15143;DHT22;7672;50.834;6.286;2024-03-07T05:06:44;6.90;99.90
15143;DHT22;7672;50.834;6.286;2024-03-07T05:09:14;6.80;99.90
15143;DHT22;7672;50.834;6.286;2024-03-07T05:11:52;6.90;99.90
15143;DHT22;7672;50.834;6.286;2024-03-07T05:14:20;6.90;99.90
15143;DHT22;7672;50.834;6.286;2024-03-07T05:16:48;6.80;99.90
15143;DHT22;7672;50.834;6.286;2024-03-07T05:19:36;7.20;99.90
15143;DHT22;7672;50.834;6.286;2024-03-07T05:22:03;6.80;99.90
15143;DHT22;7672;50.834;6.286;2024-03-07T05:24:33;6.80;99.90
15143;DHT22;7672;50.834;6.286;2024-03-07T05:27:01;6.80;99.90
15143;DHT22;7672;50.834;6.286;2024-03-07T05:29:28;6.80;99.90
15143;DHT22;7672;50.834;6.286;2024-03-07T05:31:55;6.70;99.90
15143;DHT22;7672;50.834;6.286;2024-03-07T05:34:50;6.80;99.90
15143;DHT22;7672;50.834;6.286;2024-03-07T05:37:17;6.70;99.90
15143;DHT22;7672;50.834;6.286;2024-03-07T05:39:44;6.70;99.90
15143;DHT22;7672;50.834;6.286;2024-03-07T05:42:11;6.70;99.90
15143;DHT22;7672;50.834;6.286;2024-03-07T05:44:41;6.60;99.90
15143;DHT22;7672;50.834;6.286;2024-03-07T05:47:09;6.60;99.90
15143;DHT22;7672;50.834;6.286;2024-03-07T05:49:36;6.60;99.90
15143;DHT22;7672;50.834;6.286;2024-03-07T05:52:04;6.60;99.90
15143;DHT22;7672;50.834;6.286;2024-03-07T05:54:32;6.60;99.90
15143;DHT22;7672;50.834;6.286;2024-03-07T05:57:00;6.60;99.90
15143;DHT22;7672;50.834;6.286;2024-03-07T05:59:27;6.60;99.90
15143;DHT22;7672;50.834;6.286;2024-03-07T06:01:59;6.50;99.90
15143;DHT22;7672;50.834;6.286;2024-03-07T06:04:26;6.50;99.90
15143;DHT22;7672;50.834;6.286;2024-03-07T06:06:53;6.50;99.90
15143;DHT22;7672;50.834;6.286;2024-03-07T06:09:20;6.50;99.90
15143;DHT22;7672;50.834;6.286;2024-03-07T06:11:49;6.50;99.90
15143;DHT22;7672;50.834;6.286;2024-03-07T06:14:16;6.40;99.90
15143;DHT22;7672;50.834;6.286;2024-03-07T06:16:44;6.40;99.90
15143;DHT22;7672;50.834;6.286;2024-03-07T06:19:11;6.40;99.90
15143;DHT22;7672;50.834;6.286;2024-03-07T06:21:40;6.40;99.90
15143;DHT22;7672;50.834;6.286;2024-03-07T06:24:08;6.40;99.90
15143;DHT22;7672;50.834;6.286;2024-03-07T06:26:38;6.40;99.90
15143;DHT22;7672;50.834;6.286;2024-03-07T06:29:13;6.40;99.90
15143;DHT22;7672;50.834;6.286;2024-03-07T06:31:43;6.40;99.90
15143;DHT22;7672;50.834;6.286;2024-03-07T06:34:13;6.40;99.90
15143;DHT22;7672;50.834;6.286;2024-03-07T06:36:40;6.40;99.90
15143;DHT22;7672;50.834;6.286;2024-03-07T06:39:08;6.40;99.90
15143;DHT22;7672;50.834;6.286;2024-03-07T06:41:38;6.40;99.90
15143;DHT22;7672;50.834;6.286;2024-03-07T06:44:06;6.40;99.90
15143;DHT22;7672;50.834;6.286;2024-03-07T06:46:34;6.40;99.90
15143;DHT22;7672;50.834;6.286;2024-03-07T06:49:01;6.40;99.90
15143;DHT22;7672;50.834;6.286;2024-03-07T06:51:29;6.40;99.90
15143;DHT22;7672;50.834;6.286;2024-03-07T06:53:56;6.40;99.90
15143;DHT22;7672;50.834;6.286;2024-03-07T06:56:23;6.40;99.90
15143;DHT22;7672;50.834;6.286;2024-03-07T06:58:51;6.40;99.90
15143;DHT22;7672;50.834;6.286;2024-03-07T07:01:18;6.40;99.90
15143;DHT22;7672;50.834;6.286;2024-03-07T07:03:47;6.40;99.90
15143;DHT22;7672;50.834;6.286;2024-03-07T07:06:16;6.50;99.90
15143;DHT22;7672;50.834;6.286;2024-03-07T07:08:44;6.50;99.90
15143;DHT22;7672;50.834;6.286;2024-03-07T07:11:12;6.50;99.90
15143;DHT22;7672;50.834;6.286;2024-03-07T07:13:40;6.50;99.90
15143;DHT22;7672;50.834;6.286;2024-03-07T07:16:09;6.50;99.90
15143;DHT22;7672;50.834;6.286;2024-03-07T07:18:37;6.60;99.90
15143;DHT22;7672;50.834;6.286;2024-03-07T07:21:05;6.60;99.90
15143;DHT22;7672;50.834;6.286;2024-03-07T07:23:33;6.70;99.90
15143;DHT22;7672;50.834;6.286;2024-03-07T07:26:00;6.70;99.90
15143;DHT22;7672;50.834;6.286;2024-03-07T07:28:27;6.80;99.90
15143;DHT22;7672;50.834;6.286;2024-03-07T07:30:54;6.80;99.90
15143;DHT22;7672;50.834;6.286;2024-03-07T07:33:20;6.90;99.90
15143;DHT22;7672;50.834;6.286;2024-03-07T07:35:48;7.10;99.90
15143;DHT22;7672;50.834;6.286;2024-03-07T07:38:15;7.20;99.90
15143;DHT22;7672;50.834;6.286;2024-03-07T07:40:42;7.50;99.90
15143;DHT22;7672;50.834;6.286;2024-03-07T07:43:11;7.70;99.90
15143;DHT22;7672;50.834;6.286;2024-03-07T07:45:51;7.90;99.90
15143;DHT22;7672;50.834;6.286;2024-03-07T07:48:18;8.20;99.90
15143;DHT22;7672;50.834;6.286;2024-03-07T07:50:49;8.50;99.90
15143;DHT22;7672;50.834;6.286;2024-03-07T07:53:18;8.80;99.90
15143;DHT22;7672;50.834;6.286;2024-03-07T07:55:45;9.20;99.90
15143;DHT22;7672;50.834;6.286;2024-03-07T07:58:13;9.60;99.90
15143;DHT22;7672;50.834;6.286;2024-03-07T08:00:40;10.00;99.90
15143;DHT22;7672;50.834;6.286;2024-03-07T08:03:10;10.50;99.90
15143;DHT22;7672;50.834;6.286;2024-03-07T08:05:38;10.90;99.90
15143;DHT22;7672;50.834;6.286;2024-03-07T08:08:07;11.20;99.90
15143;DHT22;7672;50.834;6.286;2024-03-07T08:10:37;11.50;99.90
15143;DHT22;7672;50.834;6.286;2024-03-07T08:13:05;11.80;99.90
15143;DHT22;7672;50.834;6.286;2024-03-07T08:15:33;12.10;99.90
15143;DHT22;7672;50.834;6.286;2024-03-07T08:18:00;12.40;99.90
15143;DHT22;7672;50.834;6.286;2024-03-07T08:20:28;12.60;99.90
15143;DHT22;7672;50.834;6.286;2024-03-07T08:22:57;12.90;99.90
15143;DHT22;7672;50.834;6.286;2024-03-07T08:25:27;13.10;99.90
15143;DHT22;7672;50.834;6.286;2024-03-07T08:27:57;13.30;99.90
15143;DHT22;7672;50.834;6.286;2024-03-07T08:30:25;13.50;99.90
15143;DHT22;7672;50.834;6.286;2024-03-07T08:32:56;13.70;99.90
15143;DHT22;7672;50.834;6.286;2024-03-07T08:35:24;13.90;99.90
15143;DHT22;7672;50.834;6.286;2024-03-07T08:37:53;14.10;99.90
15143;DHT22;7672;50.834;6.286;2024-03-07T08:40:24;14.20;99.90
15143;DHT22;7672;50.834;6.286;2024-03-07T08:42:55;14.30;99.90
15143;DHT22;7672;50.834;6.286;2024-03-07T08:45:25;14.50;99.90
15143;DHT22;7672;50.834;6.286;2024-03-07T08:47:55;14.70;99.90
15143;DHT22;7672;50.834;6.286;2024-03-07T08:50:27;14.90;99.90
15143;DHT22;7672;50.834;6.286;2024-03-07T08:52:55;15.10;99.90
15143;DHT22;7672;50.834;6.286;2024-03-07T08:55:24;15.30;99.90
15143;DHT22;7672;50.834;6.286;2024-03-07T08:57:52;15.40;99.90
15143;DHT22;7672;50.834;6.286;2024-03-07T09:00:20;15.60;99.90
15143;DHT22;7672;50.834;6.286;2024-03-07T09:02:53;15.60;99.90
15143;DHT22;7672;50.834;6.286;2024-03-07T09:05:27;15.50;99.90
15143;DHT22;7672;50.834;6.286;2024-03-07T09:07:55;15.50;99.90
15143;DHT22;7672;50.834;6.286;2024-03-07T09:10:23;15.40;99.90
15143;DHT22;7672;50.834;6.286;2024-03-07T09:12:52;15.30;99.90
15143;DHT22;7672;50.834;6.286;2024-03-07T09:15:21;15.30;99.90
15143;DHT22;7672;50.834;6.286;2024-03-07T09:17:49;15.30;99.90
15143;DHT22;7672;50.834;6.286;2024-03-07T09:20:17;15.00;99.90
15143;DHT22;7672;50.834;6.286;2024-03-07T09:22:47;14.90;99.90
15143;DHT22;7672;50.834;6.286;2024-03-07T09:25:15;14.90;99.90
15143;DHT22;7672;50.834;6.286;2024-03-07T09:27:44;15.00;99.90
15143;DHT22;7672;50.834;6.286;2024-03-07T09:30:12;15.10;99.90
15143;DHT22;7672;50.834;6.286;2024-03-07T09:32:41;15.20;99.90
15143;DHT22;7672;50.834;6.286;2024-03-07T09:35:09;15.30;99.90
15143;DHT22;7672;50.834;6.286;2024-03-07T09:37:42;15.70;99.90
15143;DHT22;7672;50.834;6.286;2024-03-07T09:40:11;15.50;99.90
15143;DHT22;7672;50.834;6.286;2024-03-07T09:42:44;15.60;99.90
15143;DHT22;7672;50.834;6.286;2024-03-07T09:45:15;15.60;99.90
15143;DHT22;7672;50.834;6.286;2024-03-07T09:47:49;15.70;99.90
15143;DHT22;7672;50.834;6.286;2024-03-07T09:50:19;15.80;99.90
15143;DHT22;7672;50.834;6.286;2024-03-07T09:52:52;15.80;99.90
15143;DHT22;7672;50.834;6.286;2024-03-07T09:55:22;15.90;99.90
15143;DHT22;7672;50.834;6.286;2024-03-07T09:57:53;15.90;99.90
15143;DHT22;7672;50.834;6.286;2024-03-07T10:00:24;16.10;99.90
15143;DHT22;7672;50.834;6.286;2024-03-07T10:02:57;16.20;99.90
15143;DHT22;7672;50.834;6.286;2024-03-07T10:05:27;16.30;99.90
15143;DHT22;7672;50.834;6.286;2024-03-07T10:07:55;16.40;99.90
15143;DHT22;7672;50.834;6.286;2024-03-07T10:10:23;16.50;99.90
15143;DHT22;7672;50.834;6.286;2024-03-07T10:12:51;16.60;99.90
15143;DHT22;7672;50.834;6.286;2024-03-07T10:15:30;16.70;99.90
15143;DHT22;7672;50.834;6.286;2024-03-07T10:17:59;16.70;99.90
15143;DHT22;7672;50.834;6.286;2024-03-07T10:20:28;16.60;99.90
15143;DHT22;7672;50.834;6.286;2024-03-07T10:22:56;16.60;99.90
15143;DHT22;7672;50.834;6.286;2024-03-07T10:25:24;16.60;99.90
15143;DHT22;7672;50.834;6.286;2024-03-07T10:27:52;16.50;99.90
15143;DHT22;7672;50.834;6.286;2024-03-07T10:30:21;16.50;99.90
15143;DHT22;7672;50.834;6.286;2024-03-07T10:32:58;16.40;99.90
15143;DHT22;7672;50.834;6.286;2024-03-07T10:35:28;16.20;99.90
15143;DHT22;7672;50.834;6.286;2024-03-07T10:37:58;15.90;99.90
15143;DHT22;7672;50.834;6.286;2024-03-07T10:40:28;15.70;99.90
15143;DHT22;7672;50.834;6.286;2024-03-07T10:42:57;15.30;99.90
15143;DHT22;7672;50.834;6.286;2024-03-07T10:45:28;15.10;99.90
15143;DHT22;7672;50.834;6.286;2024-03-07T10:47:57;14.90;99.90
15143;DHT22;7672;50.834;6.286;2024-03-07T10:53:50;14.50;99.90
15143;DHT22;7672;50.834;6.286;2024-03-07T10:59:18;13.90;99.90
15143;DHT22;7672;50.834;6.286;2024-03-07T11:01:59;13.70;99.90
15143;DHT22;7672;50.834;6.286;2024-03-07T11:04:42;13.50;99.90
15143;DHT22;7672;50.834;6.286;2024-03-07T11:07:11;13.30;99.90
15143;DHT22;7672;50.834;6.286;2024-03-07T11:09:39;13.40;99.90
15143;DHT22;7672;50.834;6.286;2024-03-07T11:12:09;13.00;99.90
15143;DHT22;7672;50.834;6.286;2024-03-07T11:14:39;12.90;99.90
15143;DHT22;7672;50.834;6.286;2024-03-07T11:17:08;12.80;99.90
15143;DHT22;7672;50.834;6.286;2024-03-07T11:19:40;12.80;99.90
15143;DHT22;7672;50.834;6.286;2024-03-07T11:22:08;12.70;99.90
15143;DHT22;7672;50.834;6.286;2024-03-07T11:24:43;12.80;99.90
15143;DHT22;7672;50.834;6.286;2024-03-07T11:27:12;12.70;99.90
15143;DHT22;7672;50.834;6.286;2024-03-07T11:29:51;12.80;99.90
15143;DHT22;7672;50.834;6.286;2024-03-07T11:32:23;13.00;99.90
15143;DHT22;7672;50.834;6.286;2024-03-07T11:34:53;13.00;99.90
15143;DHT22;7672;50.834;6.286;2024-03-07T11:37:37;13.20;99.90
15143;DHT22;7672;50.834;6.286;2024-03-07T11:42:53;13.20;99.90
15143;DHT22;7672;50.834;6.286;2024-03-07T11:45:26;13.20;99.90
15143;DHT22;7672;50.834;6.286;2024-03-07T11:47:58;13.30;99.90
15143;DHT22;7672;50.834;6.286;2024-03-07T11:50:28;13.30;99.90
15143;DHT22;7672;50.834;6.286;2024-03-07T11:52:56;13.40;99.90
15143;DHT22;7672;50.834;6.286;2024-03-07T11:55:23;13.40;99.90
15143;DHT22;7672;50.834;6.286;2024-03-07T11:57:50;13.50;99.90
15143;DHT22;7672;50.834;6.286;2024-03-07T12:00:18;13.60;99.90
15143;DHT22;7672;50.834;6.286;2024-03-07T12:02:46;13.70;99.90
15143;DHT22;7672;50.834;6.286;2024-03-07T12:05:15;13.90;99.90
15143;DHT22;7672;50.834;6.286;2024-03-07T12:07:44;13.90;99.90
15143;DHT22;7672;50.834;6.286;2024-03-07T12:10:11;14.00;99.90
15143;DHT22;7672;50.834;6.286;2024-03-07T12:12:39;14.10;99.90
15143;DHT22;7672;50.834;6.286;2024-03-07T12:15:07;14.20;99.90
15143;DHT22;7672;50.834;6.286;2024-03-07T12:17:48;14.20;99.90
15143;DHT22;7672;50.834;6.286;2024-03-07T12:20:18;14.30;99.90
15143;DHT22;7672;50.834;6.286;2024-03-07T12:23:01;14.30;99.90
15143;DHT22;7672;50.834;6.286;2024-03-07T12:25:31;14.30;99.90
15143;DHT22;7672;50.834;6.286;2024-03-07T12:28:10;14.30;99.90
15143;DHT22;7672;50.834;6.286;2024-03-07T12:30:49;14.20;99.90
15143;DHT22;7672;50.834;6.286;2024-03-07T12:33:19;14.10;99.90
15143;DHT22;7672;50.834;6.286;2024-03-07T12:35:52;14.10;99.90
15143;DHT22;7672;50.834;6.286;2024-03-07T12:38:27;14.00;99.90
15143;DHT22;7672;50.834;6.286;2024-03-07T12:41:04;13.90;99.90
15143;DHT22;7672;50.834;6.286;2024-03-07T12:43:33;13.70;99.90
15143;DHT22;7672;50.834;6.286;2024-03-07T12:46:01;13.60;99.90
15143;DHT22;7672;50.834;6.286;2024-03-07T12:48:28;13.50;99.90
15143;DHT22;7672;50.834;6.286;2024-03-07T12:50:55;13.40;99.90
15143;DHT22;7672;50.834;6.286;2024-03-07T12:53:23;13.30;99.90
15143;DHT22;7672;50.834;6.286;2024-03-07T12:55:52;13.20;99.90
15143;DHT22;7672;50.834;6.286;2024-03-07T12:58:19;13.10;99.90
15143;DHT22;7672;50.834;6.286;2024-03-07T13:00:49;13.00;99.90
15143;DHT22;7672;50.834;6.286;2024-03-07T13:03:16;13.00;99.90
15143;DHT22;7672;50.834;6.286;2024-03-07T13:05:43;13.00;99.90
15143;DHT22;7672;50.834;6.286;2024-03-07T13:08:10;13.00;99.90
15143;DHT22;7672;50.834;6.286;2024-03-07T13:10:41;13.10;99.90
15143;DHT22;7672;50.834;6.286;2024-03-07T13:13:09;13.10;99.90
15143;DHT22;7672;50.834;6.286;2024-03-07T13:15:38;13.00;99.90
15143;DHT22;7672;50.834;6.286;2024-03-07T13:18:06;13.00;99.90
15143;DHT22;7672;50.834;6.286;2024-03-07T13:20:36;13.00;99.90
15143;DHT22;7672;50.834;6.286;2024-03-07T13:23:03;13.00;99.90
15143;DHT22;7672;50.834;6.286;2024-03-07T13:25:30;13.00;99.90
15143;DHT22;7672;50.834;6.286;2024-03-07T13:28:12;13.00;99.90
15143;DHT22;7672;50.834;6.286;2024-03-07T13:30:44;13.00;99.90
15143;DHT22;7672;50.834;6.286;2024-03-07T13:33:15;13.00;99.90
15143;DHT22;7672;50.834;6.286;2024-03-07T13:35:43;13.00;99.90
15143;DHT22;7672;50.834;6.286;2024-03-07T13:38:10;13.00;99.90
15143;DHT22;7672;50.834;6.286;2024-03-07T13:40:38;12.90;99.90
15143;DHT22;7672;50.834;6.286;2024-03-07T13:43:07;12.90;99.90
15143;DHT22;7672;50.834;6.286;2024-03-07T13:45:35;13.00;99.90
15143;DHT22;7672;50.834;6.286;2024-03-07T13:48:07;13.00;99.90
15143;DHT22;7672;50.834;6.286;2024-03-07T13:50:37;13.00;99.90
15143;DHT22;7672;50.834;6.286;2024-03-07T13:53:24;13.00;99.90
15143;DHT22;7672;50.834;6.286;2024-03-07T13:59:17;13.10;99.90
15143;DHT22;7672;50.834;6.286;2024-03-07T14:02:11;13.20;99.90
15143;DHT22;7672;50.834;6.286;2024-03-07T14:08:49;13.30;99.90
15143;DHT22;7672;50.834;6.286;2024-03-07T14:17:39;13.30;99.90
15143;DHT22;7672;50.834;6.286;2024-03-07T14:20:37;13.30;99.90
15143;DHT22;7672;50.834;6.286;2024-03-07T14:23:45;13.30;99.90
15143;DHT22;7672;50.834;6.286;2024-03-07T14:33:07;13.20;99.90
15143;DHT22;7672;50.834;6.286;2024-03-07T14:35:58;13.10;99.90
15143;DHT22;7672;50.834;6.286;2024-03-07T14:41:50;12.90;99.90
15143;DHT22;7672;50.834;6.286;2024-03-07T14:44:20;12.90;99.90
15143;DHT22;7672;50.834;6.286;2024-03-07T14:46:52;12.80;99.90
15143;DHT22;7672;50.834;6.286;2024-03-07T14:49:25;12.80;99.90
15143;DHT22;7672;50.834;6.286;2024-03-07T14:51:52;12.70;99.90
15143;DHT22;7672;50.834;6.286;2024-03-07T14:54:27;12.70;99.90
15143;DHT22;7672;50.834;6.286;2024-03-07T14:56:55;12.60;99.90
15143;DHT22;7672;50.834;6.286;2024-03-07T14:59:22;12.50;99.90
15143;DHT22;7672;50.834;6.286;2024-03-07T15:01:49;12.50;99.90
15143;DHT22;7672;50.834;6.286;2024-03-07T15:04:17;12.40;99.90
15143;DHT22;7672;50.834;6.286;2024-03-07T15:06:45;12.40;99.90
15143;DHT22;7672;50.834;6.286;2024-03-07T15:09:13;12.30;99.90
15143;DHT22;7672;50.834;6.286;2024-03-07T15:11:41;12.30;99.90
15143;DHT22;7672;50.834;6.286;2024-03-07T15:14:09;12.20;99.90
15143;DHT22;7672;50.834;6.286;2024-03-07T15:16:37;12.20;99.90
15143;DHT22;7672;50.834;6.286;2024-03-07T15:19:07;12.20;99.90
15143;DHT22;7672;50.834;6.286;2024-03-07T15:21:38;12.10;99.90
15143;DHT22;7672;50.834;6.286;2024-03-07T15:24:06;12.10;99.90
15143;DHT22;7672;50.834;6.286;2024-03-07T15:26:33;12.10;99.90
15143;DHT22;7672;50.834;6.286;2024-03-07T15:29:02;12.00;99.90
15143;DHT22;7672;50.834;6.286;2024-03-07T15:31:29;12.00;99.90
15143;DHT22;7672;50.834;6.286;2024-03-07T15:33:56;12.00;99.90
15143;DHT22;7672;50.834;6.286;2024-03-07T15:36:23;11.90;99.90
15143;DHT22;7672;50.834;6.286;2024-03-07T15:38:52;11.90;99.90
15143;DHT22;7672;50.834;6.286;2024-03-07T15:41:20;11.80;99.90
15143;DHT22;7672;50.834;6.286;2024-03-07T15:43:48;11.80;99.90
15143;DHT22;7672;50.834;6.286;2024-03-07T15:46:16;11.80;99.90
15143;DHT22;7672;50.834;6.286;2024-03-07T15:48:45;11.80;99.90
15143;DHT22;7672;50.834;6.286;2024-03-07T15:51:16;11.80;99.90
15143;DHT22;7672;50.834;6.286;2024-03-07T15:53:43;11.70;99.90
15143;DHT22;7672;50.834;6.286;2024-03-07T15:56:11;11.70;99.90
15143;DHT22;7672;50.834;6.286;2024-03-07T15:58:40;11.70;99.90
15143;DHT22;7672;50.834;6.286;2024-03-07T16:01:07;11.70;99.90
15143;DHT22;7672;50.834;6.286;2024-03-07T16:03:34;11.70;99.90
15143;DHT22;7672;50.834;6.286;2024-03-07T16:06:01;11.70;99.90
15143;DHT22;7672;50.834;6.286;2024-03-07T16:08:29;11.70;99.90
15143;DHT22;7672;50.834;6.286;2024-03-07T16:10:56;11.70;99.90
15143;DHT22;7672;50.834;6.286;2024-03-07T16:13:23;11.70;99.90
15143;DHT22;7672;50.834;6.286;2024-03-07T16:15:50;11.70;99.90
15143;DHT22;7672;50.834;6.286;2024-03-07T16:18:19;11.60;99.90
15143;DHT22;7672;50.834;6.286;2024-03-07T16:20:50;11.60;99.90
15143;DHT22;7672;50.834;6.286;2024-03-07T16:23:17;11.60;99.90
15143;DHT22;7672;50.834;6.286;2024-03-07T16:25:44;11.60;99.90
15143;DHT22;7672;50.834;6.286;2024-03-07T16:28:11;11.50;99.90
15143;DHT22;7672;50.834;6.286;2024-03-07T16:30:39;11.50;99.90
15143;DHT22;7672;50.834;6.286;2024-03-07T16:33:13;11.50;99.90
15143;DHT22;7672;50.834;6.286;2024-03-07T16:35:45;11.40;99.90
15143;DHT22;7672;50.834;6.286;2024-03-07T16:38:12;11.40;99.90
15143;DHT22;7672;50.834;6.286;2024-03-07T16:40:40;11.40;99.90
15143;DHT22;7672;50.834;6.286;2024-03-07T16:43:10;11.40;99.90
15143;DHT22;7672;50.834;6.286;2024-03-07T16:45:39;11.30;99.90
15143;DHT22;7672;50.834;6.286;2024-03-07T16:48:08;11.30;99.90
15143;DHT22;7672;50.834;6.286;2024-03-07T16:50:37;11.30;99.90
15143;DHT22;7672;50.834;6.286;2024-03-07T16:53:07;11.30;99.90
15143;DHT22;7672;50.834;6.286;2024-03-07T16:55:35;11.30;99.90